CDT,Max TemperatureF,Mean TemperatureF,Min TemperatureF,Max Dew PointF,MeanDew PointF,Min DewpointF,Max Humidity, Mean Humidity, Min Humidity, Max Sea Level PressureIn, Mean Sea Level PressureIn, Min Sea Level PressureIn, Max VisibilityMiles, Mean VisibilityMiles, Min VisibilityMiles, Max Wind SpeedMPH, Mean Wind SpeedMPH, Max Gust SpeedMPH,PrecipitationIn, CloudCover, Events, WindDirDegrees
2013-10-1,83,74,65,72,68,65,100,90,56,30.03,29.99,29.94,10,9,4,9,6,,0.00,5,,165
2013-10-2,80,72,64,72,68,64,100,92,72,30.08,30.03,29.95,10,6,0,17,6,22,0.03,3,Fog-Rain,146
2013-10-3,81,72,64,71,69,64,100,85,66,29.99,29.94,29.88,10,10,10,13,8,18,0.00,3,,168
2013-10-4,84,76,67,70,69,68,100,81,60,29.98,29.93,29.89,10,10,9,13,8,18,0.00,2,,163
2013-10-5,72,60,47,70,60,48,100,98,83,30.01,29.96,29.88,10,9,2,16,6,28,0.59,6,Rain-Thunderstorm,220
2013-10-6,55,48,42,48,43,40,100,80,58,29.97,29.94,29.89,10,10,9,13,6,23,0.00,4,,256
2013-10-7,68,56,45,55,49,45,100,81,46,30.16,30.09,29.97,10,4,0,8,4,,0.00,2,,296
2013-10-8,72,57,42,54,47,43,100,86,43,30.21,30.16,30.12,10,5,1,13,3,,0.00,0,,142
2013-10-9,72,58,43,56,50,43,100,78,46,30.19,30.12,30.09,10,10,8,8,5,,0.00,0,,135
2013-10-10,75,62,48,60,55,49,100,83,50,30.16,30.08,29.98,10,10,10,12,5,,0.00,0,,155
2013-10-11,77,66,54,63,59,54,100,88,59,30.01,29.97,29.89,10,7,0,15,9,23,0.00,2,Fog,154
2013-10-12,71,60,48,63,59,49,100,85,57,30.22,30.07,29.93,10,8,1,10,6,17,0.01,4,Rain,297
2013-10-13,69,56,43,49,44,42,99,65,38,30.41,30.32,30.23,10,7,2,8,4,,0.00,2,,39
2013-10-14,66,58,50,61,51,40,100,77,53,30.32,30.16,30.03,10,10,10,13,7,,0.01,3,,119
2013-10-15,64,57,49,64,60,49,100,97,87,30.04,29.96,29.91,10,8,1,16,8,,0.34,7,Rain,212
2013-10-16,57,49,41,46,44,41,100,79,60,30.10,30.05,30.00,10,9,2,10,5,,0.00,3,,298
2013-10-17,62,54,44,48,45,39,100,82,44,30.04,30.00,29.97,10,10,9,10,4,17,0.00,3,,229
2013-10-18,56,48,41,44,43,40,100,85,59,30.11,30.05,30.00,10,10,4,10,6,,0.03,4,Rain,314
2013-10-19,55,45,35,40,39,36,100,85,49,30.10,30.04,30.00,10,10,10,10,6,17,0.01,4,,260
2013-10-20,68,56,44,45,41,38,82,64,37,30.01,29.95,29.89,10,10,10,10,6,17,0.00,0,,199
2013-10-21,55,44,35,45,41,35,99,78,56,30.11,30.04,29.95,10,10,10,10,5,,0.00,4,,276
2013-10-22,63,48,33,44,38,33,100,74,48,30.08,29.99,29.88,10,10,6,17,6,25,0.00,4,,231
2013-10-23,50,41,33,39,35,30,98,76,49,30.19,30.10,30.02,10,10,10,9,7,,0.00,5,,312
2013-10-24,50,39,28,40,30,24,96,67,37,30.46,30.30,30.13,10,10,10,16,7,25,0.00,4,,340
2013-10-25,55,40,25,30,26,22,99,64,28,30.54,30.42,30.23,10,10,10,8,4,,0.00,0,,199
2013-10-26,64,52,39,48,38,30,78,64,49,30.21,30.14,30.07,10,10,10,12,6,20,0.00,2,,282
2013-10-27,63,46,28,38,32,28,99,65,26,30.14,30.09,30.02,10,10,5,7,3,,0.00,0,,182
2013-10-28,69,52,36,54,45,37,100,85,39,30.22,30.16,30.06,10,7,0,7,4,,0.00,1,Fog,176
2013-10-29,63,55,47,63,57,48,100,100,99,30.20,30.11,30.02,10,7,2,21,10,25,1.30,7,Rain-Thunderstorm,146
2013-10-30,71,66,62,66,64,61,100,94,81,30.05,29.95,29.81,10,10,8,16,8,26,0.06,6,Rain,175
2013-10-31,64,56,47,64,59,47,100,99,88,29.79,29.57,29.44,10,9,0,18,9,26,0.81,7,Fog-Rain-Thunderstorm,264